Time;durP1;ratioP1;P1;durP2;ratioP2;P2;SDS_P1;SDS_P2;PMS_P1;PMS_P2;Temp;Humidity;BMP_temperature;BMP_pressure;BME280_temperature;BME280_humidity;BME280_pressure;Samples;Min_cycle;Max_cycle;Signal;HPM_P1;HPM_P2
2021/11/08 00:02:10;;;;;;;138.40;50.08;;;256.10;2252.80;;;;;;4791667;29;20035;-87
2021/11/08 00:04:36;;;;;;;153.82;52.60;;;256.10;2252.80;;;;;;4791550;29;20031;-88
2021/11/08 00:07:03;;;;;;;158.65;54.72;;;256.10;2252.80;;;;;;4791289;29;20035;-87
2021/11/08 00:09:29;;;;;;;153.15;52.90;;;256.10;2252.80;;;;;;4791456;29;20489;-87
2021/11/08 00:11:55;;;;;;;157.13;53.95;;;256.10;2252.80;;;;;;4791391;29;20066;-89
2021/11/08 00:14:22;;;;;;;157.65;54.50;;;256.10;2252.80;;;;;;4806441;29;20528;-88
2021/11/08 00:17:06;;;;;;;174.32;53.13;;;256.10;2252.80;;;;;;4791373;29;20053;-87
2021/11/08 00:22:00;;;;;;;176.00;55.83;;;256.00;2252.80;;;;;;4807250;29;20273;-88
2021/11/08 00:24:27;;;;;;;156.05;55.38;;;256.00;2252.80;;;;;;4809220;29;20062;-89
2021/11/08 00:26:54;;;;;;;155.38;53.53;;;256.10;2252.80;;;;;;4791503;29;20054;-87
2021/11/08 00:29:20;;;;;;;170.23;54.00;;;256.00;2252.80;;;;;;4791235;29;20031;-87
2021/11/08 00:31:46;;;;;;;157.90;55.70;;;256.10;2252.80;;;;;;4807532;29;20043;-88
2021/11/08 00:34:12;;;;;;;185.70;61.08;;;256.10;2252.80;;;;;;4791397;29;20040;-88
2021/11/08 00:36:38;;;;;;;190.93;62.95;;;256.10;2252.80;;;;;;4791263;29;20030;-89
2021/11/08 00:39:05;;;;;;;199.73;61.05;;;256.10;2252.80;;;;;;4791448;29;20035;-87
2021/11/08 00:41:31;;;;;;;209.35;58.20;;;256.10;2252.80;;;;;;4791299;29;20569;-88
2021/11/08 00:43:57;;;;;;;173.88;59.42;;;256.10;2252.80;;;;;;4791387;29;20110;-87
2021/11/08 00:46:23;;;;;;;180.27;60.20;;;256.10;2252.80;;;;;;4791433;29;20035;-87
2021/11/08 00:48:50;;;;;;;174.85;56.00;;;256.00;2252.80;;;;;;4791175;29;20037;-88
2021/11/08 00:51:17;;;;;;;183.85;58.20;;;256.10;2252.80;;;;;;4791120;29;20465;-87
2021/11/08 00:53:45;;;;;;;188.82;58.60;;;256.10;2252.80;;;;;;4791062;29;20130;-88
2021/11/08 00:56:16;;;;;;;195.82;57.22;;;256.10;2252.80;;;;;;4806917;29;20027;-87
2021/11/08 00:58:43;;;;;;;154.85;54.67;;;256.10;2252.80;;;;;;4790907;29;20039;-86
2021/11/08 01:01:12;;;;;;;216.98;59.42;;;256.10;2252.80;;;;;;4806626;29;20030;-88
2021/11/08 01:03:43;;;;;;;167.30;55.40;;;256.10;2252.80;;;;;;4792905;29;20027;-94
2021/11/08 01:06:11;;;;;;;177.77;56.55;;;256.10;2252.80;;;;;;4809737;29;20034;-86
2021/11/08 01:08:37;;;;;;;151.07;53.92;;;256.10;2252.80;;;;;;4794571;29;20038;-87
2021/11/08 01:11:04;;;;;;;183.50;57.30;;;256.10;2252.80;;;;;;4794662;29;20035;-87
2021/11/08 01:13:30;;;;;;;157.63;55.80;;;231.30;2252.80;;;;;;4794538;29;20042;-88
2021/11/08 01:15:57;;;;;;;146.00;52.60;;;256.10;2252.80;;;;;;4810859;29;20026;-87
2021/11/08 01:18:24;;;;;;;142.40;52.85;;;256.10;2252.80;;;;;;4796099;29;20042;-87
2021/11/08 01:20:51;;;;;;;151.10;54.13;;;256.10;2252.80;;;;;;4794936;29;20489;-87
2021/11/08 01:23:22;;;;;;;181.50;55.20;;;256.10;2252.80;;;;;;4795182;29;20392;-87
2021/11/08 01:25:56;;;;;;;147.57;54.38;;;256.10;2252.80;;;;;;4795404;29;20080;-87
2021/11/08 01:28:30;;;;;;;158.50;54.08;;;256.10;2252.80;;;;;;4811247;29;20029;-86
2021/11/08 01:30:56;;;;;;;189.60;57.77;;;256.10;2252.80;;;;;;4794628;29;20031;-86
2021/11/08 01:33:23;;;;;;;185.27;56.63;;;256.10;2252.80;;;;;;4811671;29;20035;-92
2021/11/08 01:38:38;;;;;;;162.32;55.97;;;256.10;2252.80;;;;;;4811343;29;20536;-92
2021/11/08 01:41:04;;;;;;;167.50;58.90;;;256.20;2252.80;;;;;;4794447;29;20058;-86
2021/11/08 01:43:33;;;;;;;167.55;58.88;;;256.10;2252.80;;;;;;4793837;29;20499;-88
2021/11/08 01:45:59;;;;;;;173.25;56.92;;;256.10;2252.80;;;;;;4809877;29;20469;-88
2021/11/08 01:48:28;;;;;;;152.35;56.22;;;231.20;2252.80;;;;;;4809634;29;20102;-87
2021/11/08 01:50:54;;;;;;;138.85;53.22;;;256.00;2252.80;;;;;;4793763;29;20038;-87
2021/11/08 01:53:23;;;;;;;175.93;57.92;;;256.00;2252.80;;;;;;4793710;29;20039;-87
2021/11/08 01:55:51;;;;;;;143.82;55.53;;;256.00;2252.80;;;;;;4793469;29;20129;-87
2021/11/08 01:58:21;;;;;;;202.93;55.85;;;256.00;2252.80;;;;;;4793603;29;20045;-87
2021/11/08 02:00:49;;;;;;;205.75;57.45;;;256.00;2252.80;;;;;;4793574;29;20027;-87
2021/11/08 02:03:16;;;;;;;184.13;56.90;;;231.30;2252.80;;;;;;4809617;29;20035;-88
2021/11/08 02:05:43;;;;;;;177.85;56.58;;;231.20;2252.80;;;;;;4793617;29;20031;-88
2021/11/08 02:08:09;;;;;;;239.93;64.10;;;231.20;2252.80;;;;;;4793597;29;20035;-88
2021/11/08 02:10:35;;;;;;;154.35;57.85;;;231.20;2252.80;;;;;;4793267;29;20038;-88
2021/11/08 02:13:02;;;;;;;167.18;56.08;;;231.20;2252.80;;;;;;4793266;29;20129;-88
2021/11/08 02:15:28;;;;;;;220.93;61.08;;;256.00;2252.80;;;;;;4792618;29;20496;-88
2021/11/08 02:17:55;;;;;;;170.07;58.92;;;231.30;2252.80;;;;;;4793416;29;20041;-87
2021/11/08 02:20:27;;;;;;;196.45;59.20;;;231.30;2252.80;;;;;;4792937;29;20055;-88
2021/11/08 02:22:57;;;;;;;157.13;55.38;;;256.00;2252.80;;;;;;4808380;29;20041;-88
2021/11/08 02:25:24;;;;;;;156.32;57.20;;;231.30;2252.80;;;;;;4808365;29;20030;-87
2021/11/08 02:27:52;;;;;;;173.00;53.33;;;231.30;2252.80;;;;;;4793220;29;20035;-89
2021/11/08 02:30:20;;;;;;;175.27;54.78;;;256.10;2252.80;;;;;;4793105;29;20068;-88
2021/11/08 02:32:51;;;;;;;155.07;54.55;;;231.30;2252.80;;;;;;4807834;29;20043;-87
2021/11/08 02:35:18;;;;;;;171.73;56.40;;;231.30;2252.80;;;;;;4793489;29;20031;-88
2021/11/08 02:37:44;;;;;;;152.85;56.47;;;231.30;2252.80;;;;;;4792930;29;20046;-88
2021/11/08 02:40:19;;;;;;;184.18;57.63;;;231.30;2252.80;;;;;;4809028;29;20068;-86
2021/11/08 02:42:50;;;;;;;170.18;59.40;;;231.30;2252.80;;;;;;4792947;29;20038;-87
2021/11/08 02:45:19;;;;;;;195.05;60.33;;;231.30;2252.80;;;;;;4792821;29;20027;-87
2021/11/08 02:47:47;;;;;;;162.55;59.42;;;231.30;2252.80;;;;;;4793205;29;20071;-92
2021/11/08 02:50:15;;;;;;;168.82;61.20;;;231.30;2252.80;;;;;;4792960;29;20035;-90
2021/11/08 02:52:42;;;;;;;226.20;65.15;;;231.30;2252.80;;;;;;4793190;29;20133;-88
2021/11/08 02:55:08;;;;;;;211.45;65.78;;;231.30;2252.80;;;;;;4792920;29;20435;-89
2021/11/08 02:57:36;;;;;;;181.50;64.97;;;231.30;2252.80;;;;;;4792388;29;20041;-87
2021/11/08 03:00:08;;;;;;;178.40;65.22;;;231.30;2252.80;;;;;;4792443;29;20042;-87
2021/11/08 03:02:37;;;;;;;180.18;66.50;;;231.30;2252.80;;;;;;4808380;29;20063;-93
2021/11/08 03:05:04;;;;;;;176.95;63.35;;;231.30;2252.80;;;;;;4792565;29;20087;-87
2021/11/08 03:07:32;;;;;;;178.82;65.63;;;231.30;2252.80;;;;;;4792478;29;20121;-88
2021/11/08 03:09:59;;;;;;;207.90;66.70;;;231.30;2252.80;;;;;;4792653;29;20095;-88
2021/11/08 03:12:29;;;;;;;251.55;70.68;;;256.00;2252.80;;;;;;4792277;29;20069;-87
2021/11/08 03:15:03;;;;;;;194.73;66.43;;;256.00;2252.80;;;;;;4793801;29;20397;-88
2021/11/08 03:17:34;;;;;;;201.15;66.57;;;256.00;2252.80;;;;;;4807401;29;20042;-87
2021/11/08 03:20:01;;;;;;;158.63;61.95;;;256.00;2252.80;;;;;;4792184;29;20046;-88
2021/11/08 03:22:31;;;;;;;155.73;60.90;;;256.00;2252.80;;;;;;4808518;29;20031;-87
2021/11/08 03:27:55;;;;;;;166.07;64.45;;;231.30;2252.80;;;;;;4780123;29;20405;-88
2021/11/08 03:30:25;;;;;;;166.30;66.07;;;231.30;2252.80;;;;;;4792176;29;20034;-87
2021/11/08 03:32:54;;;;;;;176.93;65.78;;;256.00;2252.80;;;;;;4792699;29;20043;-87
2021/11/08 03:35:24;;;;;;;177.68;66.55;;;256.00;2252.80;;;;;;4792470;29;20127;-93
2021/11/08 03:37:51;;;;;;;180.80;67.65;;;256.00;2252.80;;;;;;4792138;29;20045;-92
2021/11/08 03:40:28;;;;;;;197.70;69.82;;;256.00;2252.80;;;;;;4791959;29;20065;-93
2021/11/08 03:42:55;;;;;;;169.32;64.85;;;256.00;2252.80;;;;;;4792030;29;20042;-87
2021/11/08 03:45:25;;;;;;;351.40;79.55;;;256.00;2252.80;;;;;;4791820;29;20027;-87
2021/11/08 03:47:53;;;;;;;255.25;73.85;;;231.30;2252.80;;;;;;4791998;29;20070;-87
2021/11/08 03:50:19;;;;;;;209.13;70.68;;;231.20;2252.80;;;;;;4791703;29;20027;-87
2021/11/08 03:52:46;;;;;;;213.77;73.00;;;231.30;2252.80;;;;;;4791706;29;20078;-87
2021/11/08 03:55:12;;;;;;;269.52;76.60;;;231.30;2252.80;;;;;;4807784;29;20035;-87
2021/11/08 03:57:40;;;;;;;279.95;75.03;;;256.00;2252.80;;;;;;4791750;29;20045;-93
2021/11/08 04:00:08;;;;;;;377.85;83.22;;;231.30;2252.80;;;;;;4791656;29;20031;-87
2021/11/08 04:02:34;;;;;;;181.05;69.18;;;231.20;2252.80;;;;;;4792101;29;20086;-87
2021/11/08 04:05:01;;;;;;;184.45;69.40;;;231.20;2252.80;;;;;;4807021;29;20146;-87
2021/11/08 04:07:28;;;;;;;198.25;70.80;;;231.30;2252.80;;;;;;4807163;29;20035;-94
2021/11/08 04:09:55;;;;;;;190.70;69.20;;;231.30;2252.80;;;;;;4791755;29;20096;-93
2021/11/08 04:12:22;;;;;;;193.70;70.53;;;231.30;2252.80;;;;;;4791536;29;20051;-88
2021/11/08 04:14:49;;;;;;;177.80;70.10;;;231.30;2252.80;;;;;;4791553;29;20023;-87
2021/11/08 04:17:15;;;;;;;188.90;70.75;;;256.00;2252.80;;;;;;4791754;29;20034;-93
2021/11/08 04:19:42;;;;;;;176.55;68.93;;;256.00;2252.80;;;;;;4791349;29;20058;-87
2021/11/08 04:22:08;;;;;;;171.55;65.65;;;256.00;2252.80;;;;;;4791792;29;20576;-87
2021/11/08 04:24:35;;;;;;;214.30;71.30;;;256.00;2252.80;;;;;;4791393;29;20031;-88
2021/11/08 04:27:01;;;;;;;185.73;69.85;;;256.00;2252.80;;;;;;4806328;29;20077;-94
2021/11/08 04:29:28;;;;;;;249.15;77.30;;;256.00;2252.80;;;;;;4791179;29;20035;-87
2021/11/08 04:31:55;;;;;;;176.00;70.28;;;256.00;2252.80;;;;;;4791164;29;20042;-86
2021/11/08 04:42:35;;;;;;;179.05;66.03;;;256.00;2252.80;;;;;;4797944;29;20489;-86
2021/11/08 04:55:38;;;;;;;149.43;64.38;;;256.00;2252.80;;;;;;4813542;29;20457;-87
2021/11/08 05:25:15;;;;;;;112.18;54.92;;;256.10;2252.80;;;;;;4813079;29;20031;-87
2021/11/08 05:30:26;;;;;;;126.85;60.38;;;256.00;2252.80;;;;;;4813421;29;20037;-86
2021/11/08 05:32:52;;;;;;;116.78;59.08;;;256.10;2252.80;;;;;;4796492;29;20481;-93
2021/11/08 05:35:19;;;;;;;120.05;60.20;;;256.00;2252.80;;;;;;4796845;29;20043;-87
2021/11/08 05:37:46;;;;;;;118.88;61.00;;;256.00;2252.80;;;;;;4796635;29;20042;-87
2021/11/08 05:40:20;;;;;;;125.18;62.20;;;256.00;2252.80;;;;;;4813017;29;20025;-94
2021/11/08 05:42:48;;;;;;;120.22;60.65;;;256.00;2252.80;;;;;;4796809;29;20039;-86
2021/11/08 05:45:15;;;;;;;109.50;58.17;;;256.00;2252.80;;;;;;4797263;29;20027;-93
2021/11/08 05:47:42;;;;;;;108.47;56.85;;;256.10;2252.80;;;;;;4796826;29;20039;-88
2021/11/08 05:50:09;;;;;;;110.85;56.83;;;256.30;2252.80;;;;;;4810552;29;20027;-93
2021/11/08 05:52:36;;;;;;;128.15;63.50;;;256.10;2252.80;;;;;;4793852;29;20039;-86
2021/11/08 05:55:04;;;;;;;116.03;61.65;;;256.10;2252.80;;;;;;4794044;29;20031;-88
2021/11/08 06:49:55;;;;;;;103.20;64.72;;;256.40;2252.80;;;;;;4817632;29;20079;-93
2021/11/08 06:52:22;;;;;;;91.93;58.53;;;256.40;2252.80;;;;;;4800259;29;20042;-87
2021/11/08 06:54:49;;;;;;;91.35;57.88;;;256.30;2252.80;;;;;;4793945;29;20111;-88
2021/11/08 06:57:18;;;;;;;89.95;56.38;;;256.30;2252.80;;;;;;4793928;29;20034;-87
2021/11/08 06:59:46;;;;;;;98.80;59.17;;;256.40;2252.80;;;;;;4792313;29;20019;-89
2021/11/08 07:02:13;;;;;;;86.60;54.65;;;256.40;2252.80;;;;;;4807999;29;20512;-89
2021/11/08 07:04:40;;;;;;;96.45;59.97;;;256.40;2252.80;;;;;;4792464;29;20035;-89
2021/11/08 07:07:06;;;;;;;90.88;56.13;;;256.30;2252.80;;;;;;4792625;29;20061;-88
2021/11/08 07:09:39;;;;;;;95.95;56.50;;;256.30;2252.80;;;;;;4793189;29;20084;-89
2021/11/08 07:12:07;;;;;;;94.82;55.95;;;256.30;2252.80;;;;;;4809662;29;20031;-89
2021/11/08 07:14:33;;;;;;;98.30;57.85;;;256.40;2252.80;;;;;;4793302;29;20051;-90
2021/11/08 07:16:59;;;;;;;94.07;57.58;;;256.40;2252.80;;;;;;4792999;29;20033;-88
2021/11/08 07:19:25;;;;;;;94.32;57.85;;;256.40;2252.80;;;;;;4794118;29;20023;-94
2021/11/08 07:21:51;;;;;;;106.05;63.90;;;256.40;2252.80;;;;;;4807723;29;20123;-89
2021/11/08 07:24:17;;;;;;;115.68;65.85;;;256.40;2252.80;;;;;;4792456;29;20481;-89
2021/11/08 07:26:45;;;;;;;132.88;71.70;;;256.50;2252.80;;;;;;4791863;29;20052;-93
2021/11/08 07:29:12;;;;;;;125.20;71.25;;;256.50;2252.80;;;;;;4792168;29;20027;-88
2021/11/08 07:31:38;;;;;;;106.35;62.95;;;256.30;2252.80;;;;;;4792049;29;20121;-89
2021/11/08 07:34:05;;;;;;;115.35;71.28;;;256.30;2252.80;;;;;;4792264;29;20111;-89
2021/11/08 07:36:31;;;;;;;127.28;79.25;;;256.40;2252.80;;;;;;4809694;29;20030;-89
2021/11/08 07:38:56;;;;;;;112.13;72.20;;;256.50;2252.80;;;;;;4792329;29;20121;-87
2021/11/08 07:41:24;;;;;;;91.20;59.70;;;256.50;2252.80;;;;;;4808711;29;20057;-93
2021/11/08 07:43:50;;;;;;;87.25;56.50;;;256.30;2252.80;;;;;;4791977;29;20038;-94
2021/11/08 07:46:17;;;;;;;97.65;57.00;;;256.60;2252.80;;;;;;4794105;29;20076;-88
2021/11/08 07:48:43;;;;;;;98.97;57.28;;;256.60;2252.80;;;;;;4792853;29;20030;-88
2021/11/08 07:51:12;;;;;;;124.40;73.45;;;256.60;2252.80;;;;;;4793830;29;21485;-92
2021/11/08 07:53:38;;;;;;;167.13;92.28;;;256.60;2252.80;;;;;;4810632;29;20043;-88
2021/11/08 07:56:04;;;;;;;165.15;95.97;;;256.60;2252.80;;;;;;4792228;29;20050;-89
2021/11/08 07:58:33;;;;;;;154.27;90.47;;;256.60;2252.80;;;;;;4808127;29;20042;-89
2021/11/08 08:00:58;;;;;;;146.38;84.95;;;256.60;2252.80;;;;;;4791027;29;20054;-89
2021/11/08 08:03:26;;;;;;;137.93;82.93;;;256.60;2252.80;;;;;;4790594;29;20087;-89
2021/11/08 08:05:57;;;;;;;82.47;51.83;;;256.60;2252.80;;;;;;4792258;29;20062;-94
2021/11/08 08:08:23;;;;;;;76.78;48.22;;;256.60;2252.80;;;;;;4779500;29;20088;-90
2021/11/08 08:10:51;;;;;;;64.85;42.95;;;256.60;2252.80;;;;;;4790603;29;20035;-90
2021/11/08 08:13:20;;;;;;;80.47;55.58;;;256.60;2252.80;;;;;;4790573;29;20053;-92
2021/11/08 08:15:47;;;;;;;84.32;58.38;;;256.60;2252.80;;;;;;4807703;29;20027;-90
2021/11/08 08:18:13;;;;;;;140.48;90.45;;;256.60;2252.80;;;;;;4791334;29;20031;-88
2021/11/08 08:20:39;;;;;;;227.93;147.95;;;256.70;2252.80;;;;;;4790782;29;20179;-88
2021/11/08 08:23:06;;;;;;;153.07;101.40;;;256.80;2252.80;;;;;;4790974;29;20501;-90
2021/11/08 08:25:33;;;;;;;708.25;587.28;;;256.70;2252.80;;;;;;4807004;29;20033;-87
2021/11/08 08:27:59;;;;;;;467.98;404.00;;;256.70;2252.80;;;;;;4790448;29;20027;-88
2021/11/08 08:30:26;;;;;;;247.38;202.10;;;256.70;2252.80;;;;;;4790641;29;20031;-87
2021/11/08 08:32:53;;;;;;;130.63;94.55;;;256.80;2252.80;;;;;;4805804;29;20496;-89
2021/11/08 08:35:19;;;;;;;147.15;114.55;;;256.80;2252.80;;;;;;4806021;29;20093;-85
2021/11/08 08:37:45;;;;;;;164.18;117.47;;;256.70;2252.80;;;;;;4793106;29;20489;-88
2021/11/08 08:40:13;;;;;;;170.95;115.18;;;256.80;2252.80;;;;;;4815510;29;20049;-88
2021/11/08 08:42:40;;;;;;;188.10;117.60;;;256.70;2252.80;;;;;;4791929;29;20114;-90
2021/11/08 08:45:10;;;;;;;139.02;87.18;;;256.70;2252.80;;;;;;4789988;29;20027;-86
2021/11/08 08:47:36;;;;;;;209.68;134.23;;;256.80;2252.80;;;;;;4808558;29;20084;-86
2021/11/08 08:50:04;;;;;;;300.08;194.45;;;256.80;2252.80;;;;;;4789789;29;20031;-88
2021/11/08 08:52:30;;;;;;;121.00;76.18;;;256.80;2252.80;;;;;;4805505;29;20047;-87
2021/11/08 08:54:56;;;;;;;123.65;80.43;;;256.90;2252.80;;;;;;4789566;29;20031;-88
2021/11/08 08:57:22;;;;;;;94.57;63.33;;;256.90;2252.80;;;;;;4789729;29;20031;-89
2021/11/08 08:59:48;;;;;;;65.05;42.60;;;256.80;2252.80;;;;;;4789845;29;20109;-87
2021/11/08 09:02:14;;;;;;;55.33;38.28;;;256.80;2252.80;;;;;;4790122;29;20027;-88
2021/11/08 09:04:40;;;;;;;62.97;42.38;;;256.70;2252.80;;;;;;4790202;29;20053;-88
2021/11/08 09:07:07;;;;;;;167.57;103.50;;;256.80;2252.80;;;;;;4806336;29;20473;-88
2021/11/08 09:09:35;;;;;;;188.27;118.45;;;256.90;2252.80;;;;;;4806643;29;20034;-88
2021/11/08 09:12:01;;;;;;;112.57;72.32;;;256.90;2252.80;;;;;;4805230;29;21583;-87
2021/11/08 09:14:30;;;;;;;93.93;57.35;;;256.80;2252.80;;;;;;4790391;29;20027;-87
2021/11/08 09:16:56;;;;;;;55.75;37.88;;;256.90;2252.80;;;;;;4790257;29;20039;-88
2021/11/08 09:19:22;;;;;;;62.58;41.08;;;256.90;2252.80;;;;;;4790375;29;20034;-88
2021/11/08 09:21:49;;;;;;;66.95;48.47;;;256.80;2252.80;;;;;;4814742;29;20051;-85
2021/11/08 09:24:15;;;;;;;61.55;44.72;;;256.70;2252.80;;;;;;4789442;29;20106;-88
2021/11/08 09:26:41;;;;;;;37.00;26.20;;;256.90;2252.80;;;;;;4811704;29;20075;-91
2021/11/08 09:29:08;;;;;;;47.72;35.28;;;256.80;2252.80;;;;;;4805428;29;20027;-91
2021/11/08 09:31:34;;;;;;;45.30;31.02;;;256.80;2252.80;;;;;;4793661;29;20460;-91
2021/11/08 09:34:06;;;;;;;29.98;23.85;;;256.80;2252.80;;;;;;4793727;29;20066;-92
2021/11/08 09:36:34;;;;;;;25.77;20.27;;;256.90;2252.80;;;;;;4793609;29;20119;-93
2021/11/08 09:39:00;;;;;;;22.38;17.30;;;256.80;2252.80;;;;;;4793596;29;20095;-92
2021/11/08 09:41:32;;;;;;;27.50;18.20;;;256.80;2252.80;;;;;;4810087;29;20477;-93
2021/11/08 09:44:05;;;;;;;26.50;17.42;;;256.80;2252.80;;;;;;4793832;29;20092;-91
2021/11/08 09:46:32;;;;;;;22.80;17.63;;;256.80;2252.80;;;;;;4794193;29;20030;-89
2021/11/08 09:49:01;;;;;;;26.42;17.88;;;256.80;2252.80;;;;;;4793991;29;20278;-90
2021/11/08 09:51:33;;;;;;;24.88;17.08;;;256.90;2252.80;;;;;;4793634;29;20031;-92
2021/11/08 09:53:58;;;;;;;22.25;15.73;;;256.90;2252.80;;;;;;4793785;29;20031;-90
2021/11/08 09:56:24;;;;;;;23.65;15.30;;;256.90;2252.80;;;;;;4793860;29;20031;-89
2021/11/08 09:58:55;;;;;;;25.75;17.80;;;256.90;2252.80;;;;;;4794001;29;20035;-89
2021/11/08 10:01:22;;;;;;;31.38;20.40;;;256.90;2252.80;;;;;;4794101;29;20062;-89
2021/11/08 10:03:49;;;;;;;21.15;14.50;;;281.60;2278.40;;;;;;4793693;29;20034;-91
2021/11/08 10:06:15;;;;;;;40.58;22.33;;;281.60;2278.40;;;;;;4794298;29;20076;-96
2021/11/08 10:08:41;;;;;;;27.02;18.85;;;281.70;2278.40;;;;;;4793919;29;20031;-93
2021/11/08 10:11:10;;;;;;;27.50;15.98;;;281.80;2278.40;;;;;;4793390;29;20034;-92
2021/11/08 10:13:38;;;;;;;27.08;17.20;;;281.80;2278.40;;;;;;4793163;29;20041;-91
2021/11/08 10:16:11;;;;;;;59.10;36.05;;;281.80;2278.40;;;;;;4793317;29;20103;-91
2021/11/08 10:18:40;;;;;;;55.15;28.60;;;281.80;2278.40;;;;;;4793182;29;20113;-89
2021/11/08 10:21:15;;;;;;;55.03;30.40;;;281.80;2278.40;;;;;;4792757;29;20111;-91
2021/11/08 10:23:44;;;;;;;73.55;39.85;;;281.90;2278.40;;;;;;4793277;29;20389;-92
2021/11/08 10:26:14;;;;;;;67.22;32.13;;;281.90;2278.40;;;;;;4793331;29;20031;-90
2021/11/08 10:28:40;;;;;;;36.08;22.17;;;281.80;2278.40;;;;;;4792932;29;20420;-91
2021/11/08 10:31:11;;;;;;;37.15;24.63;;;281.80;2278.40;;;;;;4792287;29;20027;-92
2021/11/08 10:33:39;;;;;;;47.28;29.45;;;281.90;2278.40;;;;;;4793247;29;20051;-93
2021/11/08 10:36:12;;;;;;;47.15;25.48;;;281.90;2278.40;;;;;;4792483;29;20027;-91
2021/11/08 10:38:40;;;;;;;37.58;22.65;;;282.00;2278.40;;;;;;4792897;29;20035;-93
2021/11/08 10:41:11;;;;;;;29.40;18.58;;;281.80;2278.40;;;;;;4792931;29;20030;-91
2021/11/08 10:43:46;;;;;;;27.48;15.88;;;281.90;2278.40;;;;;;4815954;29;20027;-90
2021/11/08 10:46:24;;;;;;;18.40;11.40;;;281.80;2278.40;;;;;;4799637;29;20134;-91
2021/11/08 10:49:14;;;;;;;16.33;11.45;;;281.70;2278.40;;;;;;4792594;29;20027;-90
2021/11/08 10:51:42;;;;;;;14.18;9.80;;;281.60;2278.40;;;;;;4787346;29;20053;-92
2021/11/08 10:54:09;;;;;;;22.05;16.52;;;281.60;2278.40;;;;;;4792822;29;20034;-92
2021/11/08 10:56:47;;;;;;;15.13;11.20;;;281.60;2278.40;;;;;;4792955;29;20031;-93
2021/11/08 10:59:20;;;;;;;15.98;11.35;;;281.60;2278.40;;;;;;4792702;29;20088;-89
2021/11/08 11:01:54;;;;;;;17.20;11.05;;;281.60;2278.40;;;;;;4791043;29;20030;-93
2021/11/08 11:04:43;;;;;;;17.80;12.23;;;281.60;2278.40;;;;;;4792491;29;20062;-93
2021/11/08 11:07:19;;;;;;;17.30;11.77;;;281.60;2278.40;;;;;;4792696;29;20027;-93
2021/11/08 11:09:46;;;;;;;33.17;20.77;;;256.90;2252.80;;;;;;4807728;29;20378;-93
2021/11/08 11:12:22;;;;;;;33.78;18.33;;;281.70;2278.40;;;;;;4792180;29;20031;-92
2021/11/08 11:15:15;;;;;;;34.45;22.35;;;281.60;2278.40;;;;;;4792543;29;20030;-92
2021/11/08 11:17:42;;;;;;;17.98;12.38;;;281.70;2278.40;;;;;;4791988;29;20039;-93
2021/11/08 11:20:18;;;;;;;81.63;53.13;;;256.90;2252.80;;;;;;4806933;29;20047;-94
2021/11/08 11:22:53;;;;;;;111.10;57.65;;;281.60;2278.40;;;;;;4793058;29;20035;-92
2021/11/08 11:25:22;;;;;;;726.15;347.10;;;281.60;2278.40;;;;;;4792503;29;20075;-91
2021/11/08 11:27:50;;;;;;;637.78;315.27;;;281.70;2278.40;;;;;;4792312;29;20125;-88
2021/11/08 11:30:34;;;;;;;502.83;200.05;;;256.70;2252.80;;;;;;4791696;29;20030;-91
2021/11/08 11:33:13;;;;;;;582.08;219.77;;;281.80;2278.40;;;;;;4789565;29;20085;-92
2021/11/08 11:35:46;;;;;;;375.85;155.63;;;281.90;2278.40;;;;;;4789410;29;20034;-93
2021/11/08 11:38:23;;;;;;;43.55;21.52;;;281.90;2278.40;;;;;;4791557;29;20035;-91
2021/11/08 11:41:04;;;;;;;195.05;82.30;;;281.90;2278.40;;;;;;4791587;29;20489;-90
2021/11/08 11:43:44;;;;;;;639.88;326.52;;;281.80;2278.40;;;;;;4790802;29;20049;-91
2021/11/08 11:46:28;;;;;;;204.18;98.40;;;281.90;2278.40;;;;;;4789217;29;20125;-92
2021/11/08 11:49:03;;;;;;;101.68;54.55;;;282.00;2278.40;;;;;;4790619;29;20031;-91
2021/11/08 11:51:39;;;;;;;94.05;53.47;;;282.10;2278.40;;;;;;4791345;29;20054;-91
2021/11/08 11:54:06;;;;;;;272.35;160.70;;;282.10;2278.40;;;;;;4791271;29;20039;-91
2021/11/08 11:56:35;;;;;;;76.28;48.65;;;282.10;2278.40;;;;;;4791412;29;20030;-91
2021/11/08 11:59:02;;;;;;;57.80;37.55;;;282.10;2278.40;;;;;;4798639;29;20043;-92
2021/11/08 12:01:31;;;;;;;38.50;23.23;;;282.10;2278.40;;;;;;4788989;29;20511;-93
2021/11/08 12:03:56;;;;;;;45.55;27.88;;;282.10;2278.40;;;;;;4791065;29;20492;-90
2021/11/08 12:06:26;;;;;;;38.67;21.75;;;282.20;2278.40;;;;;;4791419;29;20033;-91
2021/11/08 12:08:55;;;;;;;21.45;13.93;;;282.30;2278.40;;;;;;4790697;29;20077;-94
2021/11/08 12:11:34;;;;;;;26.63;13.85;;;282.30;2278.40;;;;;;4791536;29;20026;-94
2021/11/08 12:14:04;;;;;;;25.65;13.95;;;282.20;2278.40;;;;;;4790994;29;20034;-92
2021/11/08 12:16:33;;;;;;;42.85;20.33;;;282.30;2278.40;;;;;;4791451;29;20026;-90
2021/11/08 12:19:00;;;;;;;45.85;22.00;;;282.30;2278.40;;;;;;4790621;29;20092;-94
2021/11/08 12:21:33;;;;;;;34.53;23.38;;;282.40;2278.40;;;;;;4790778;29;20063;-94
2021/11/08 12:24:02;;;;;;;35.33;22.38;;;282.40;2278.40;;;;;;4791012;29;20039;-93
2021/11/08 12:26:31;;;;;;;15.85;9.02;;;282.40;2278.40;;;;;;4790910;29;20031;-91
2021/11/08 12:29:06;;;;;;;21.17;14.98;;;282.30;2278.40;;;;;;4790654;29;20074;-92
2021/11/08 12:31:34;;;;;;;33.58;13.43;;;282.30;2278.40;;;;;;4798102;29;20055;-94
2021/11/08 12:34:14;;;;;;;34.67;16.75;;;282.30;2278.40;;;;;;4795096;29;20497;-95
2021/11/08 12:36:52;;;;;;;47.90;17.02;;;282.40;2278.40;;;;;;4788613;29;20034;-91
2021/11/08 12:39:19;;;;;;;28.95;11.50;;;282.50;2278.40;;;;;;4790834;29;20394;-92
2021/11/08 12:41:50;;;;;;;48.88;19.02;;;282.40;2278.40;;;;;;4791486;29;20023;-93
2021/11/08 12:44:21;;;;;;;24.63;15.13;;;282.50;2278.40;;;;;;4791036;29;20121;-92
2021/11/08 12:46:53;;;;;;;24.17;13.52;;;307.20;2304.00;;;;;;4791688;29;20118;-91
2021/11/08 12:49:30;;;;;;;25.27;16.92;;;282.50;2278.40;;;;;;4791423;29;20027;-93
2021/11/08 12:52:20;;;;;;;15.48;10.50;;;282.50;2278.40;;;;;;4791580;29;20039;-88
2021/11/08 12:54:51;;;;;;;14.25;9.00;;;282.30;2278.40;;;;;;4810617;29;20520;-93
2021/11/08 12:57:21;;;;;;;10.98;8.68;;;282.40;2278.40;;;;;;4808012;29;20054;-93
2021/11/08 12:59:55;;;;;;;9.93;7.63;;;282.30;2278.40;;;;;;4792833;29;20512;-95
2021/11/08 13:02:32;;;;;;;11.02;7.40;;;282.40;2278.40;;;;;;4795185;29;20058;-93
2021/11/08 13:05:01;;;;;;;15.50;9.68;;;282.40;2278.40;;;;;;4795458;29;20098;-91
2021/11/08 13:07:39;;;;;;;10.85;7.20;;;282.40;2278.40;;;;;;4795718;29;20484;-93
2021/11/08 13:10:19;;;;;;;14.70;9.13;;;282.50;2278.40;;;;;;4791372;30;20084;-93
2021/11/08 13:12:45;;;;;;;21.13;11.18;;;282.40;2278.40;;;;;;4792450;29;20035;-92
2021/11/08 13:15:22;;;;;;;31.73;21.23;;;282.40;2278.40;;;;;;4794570;29;20038;-93
2021/11/08 13:18:00;;;;;;;17.52;11.15;;;282.40;2278.40;;;;;;4809710;29;20035;-92
2021/11/08 13:20:29;;;;;;;16.25;8.50;;;282.50;2278.40;;;;;;4794031;29;20047;-93
2021/11/08 13:22:59;;;;;;;24.08;13.43;;;282.50;2278.40;;;;;;4794165;29;20096;-93
2021/11/08 13:25:35;;;;;;;19.13;11.27;;;282.40;2278.40;;;;;;4794234;29;20113;-92
2021/11/08 13:28:05;;;;;;;11.02;6.38;;;282.40;2278.40;;;;;;4794089;29;20088;-94
2021/11/08 13:30:44;;;;;;;8.60;5.72;;;282.40;2278.40;;;;;;4794234;29;20030;-91
2021/11/08 13:33:19;;;;;;;10.25;6.18;;;282.40;2278.40;;;;;;4791184;30;20058;-86
2021/11/08 13:35:48;;;;;;;16.40;6.65;;;282.40;2278.40;;;;;;4792499;29;20075;-91
2021/11/08 13:38:21;;;;;;;33.47;17.55;;;282.40;2278.40;;;;;;4794132;29;20354;-92
2021/11/08 13:40:59;;;;;;;35.67;17.85;;;282.40;2278.40;;;;;;4793807;29;20027;-94
2021/11/08 13:43:27;;;;;;;9.85;5.95;;;282.30;2278.40;;;;;;4809216;29;20052;-94
2021/11/08 13:45:58;;;;;;;14.13;9.60;;;282.20;2278.40;;;;;;4793908;29;20034;-96
2021/11/08 13:48:32;;;;;;;17.70;11.35;;;282.20;2278.40;;;;;;4793693;29;20038;-91
2021/11/08 13:51:08;;;;;;;23.17;14.68;;;282.20;2278.40;;;;;;4808663;29;20058;-94
2021/11/08 13:53:37;;;;;;;20.45;12.68;;;282.30;2278.40;;;;;;4793655;29;20042;-93